PWSweather.com
Personal Weather Stations
Station Observations
KNHRINDG3
Converse Meadow Pond, Rindge, NH 03461

Converse Meadow PondRindge, NH 03461

Lat: 42.74, Lon: -71.98

Elevation: 1060

Station Type: Davis Vantage Pro 2

http://nhwoodworker.com/weather/index.php

High Low Average
Temperature 84.8°F29.3°F 49.3°F9.6°F 65.8°F18.8°F
Dew Point 60.4°F15.8°F 46.8°F8.2°F 53.2°F11.8°F
Winds 4.6 mph N7.4 mph N Calm Calm 0.7 mph 1.1 mph
Wind Gusts 11.5 mph18.5 mph -- 1.4 mph2.3 mph
Humidity 100% 27% 70%
Pressure 30.00 in1015.90 in 29.93 in1013.50 in -
Precipitation 0.01 in0.30 in - -
Hour Temp Dew Point Humidity Winds Wind Gusts Pressure Precip Precip Rate Daily Precip Total
12:00 AM 54.3°F12.4°C 53.5°F11.9°C 97% Calm Calm -- 29.94 in1013.9 mb - 0.00 in0.0 mm 0.00 in0.0 mm
12:10 AM 53.7°F12.1°C 52.9°F11.6°C 97% Calm Calm -- 29.94 in1013.9 mb - 0.00 in0.0 mm 0.00 in0.0 mm
12:20 AM 53.3°F11.8°C 52.5°F11.4°C 97% Calm Calm -- 29.94 in1013.9 mb - 0.00 in0.0 mm 0.00 in0.0 mm
12:30 AM 52.9°F11.6°C 52.1°F11.2°C 97% Calm Calm -- 29.94 in1013.9 mb - 0.00 in0.0 mm 0.00 in0.0 mm
12:40 AM 52.6°F11.4°C 51.8°F11.0°C 97% Calm Calm -- 29.94 in1013.9 mb - 0.00 in0.0 mm 0.00 in0.0 mm
12:50 AM 52.5°F11.4°C 51.7°F10.9°C 97% Calm Calm -- 29.94 in1013.9 mb - 0.00 in0.0 mm 0.00 in0.0 mm
01:00 AM 52.5°F11.4°C 52.0°F11.1°C 98% Calm Calm -- 29.94 in1013.9 mb - 0.00 in0.0 mm 0.00 in0.0 mm
01:10 AM 52.5°F11.4°C 52.0°F11.1°C 98% Calm Calm -- 29.94 in1013.9 mb - 0.00 in0.0 mm 0.00 in0.0 mm
01:20 AM 52.4°F11.3°C 51.9°F11.1°C 98% Calm Calm -- 29.95 in1014.2 mb - 0.00 in0.0 mm 0.00 in0.0 mm
01:30 AM 52.2°F11.2°C 51.7°F10.9°C 98% Calm Calm -- 29.94 in1013.9 mb - 0.00 in0.0 mm 0.00 in0.0 mm
01:40 AM 52.1°F11.2°C 51.6°F10.9°C 98% Calm Calm -- 29.94 in1013.9 mb - 0.00 in0.0 mm 0.00 in0.0 mm
01:50 AM 51.9°F11.1°C 51.4°F10.8°C 98% Calm Calm -- 29.93 in1013.5 mb - 0.00 in0.0 mm 0.00 in0.0 mm
02:00 AM 51.8°F11.0°C 51.3°F10.7°C 98% Calm Calm -- 29.94 in1013.9 mb - 0.00 in0.0 mm 0.00 in0.0 mm
02:10 AM 51.6°F10.9°C 51.1°F10.6°C 98% Calm Calm -- 29.94 in1013.9 mb - 0.00 in0.0 mm 0.00 in0.0 mm
02:20 AM 51.5°F10.8°C 51.0°F10.6°C 98% Calm Calm -- 29.93 in1013.5 mb - 0.00 in0.0 mm 0.00 in0.0 mm
02:30 AM 51.3°F10.7°C 50.8°F10.4°C 98% Calm Calm -- 29.94 in1013.9 mb - 0.00 in0.0 mm 0.00 in0.0 mm
02:40 AM 51.0°F10.6°C 50.5°F10.3°C 98% Calm Calm -- 29.94 in1013.9 mb - 0.00 in0.0 mm 0.00 in0.0 mm
02:50 AM 50.9°F10.5°C 50.4°F10.2°C 98% Calm Calm -- 29.94 in1013.9 mb - 0.00 in0.0 mm 0.00 in0.0 mm
03:00 AM 50.6°F10.3°C 50.1°F10.1°C 98% Calm Calm -- 29.94 in1013.9 mb - 0.00 in0.0 mm 0.00 in0.0 mm
03:10 AM 50.4°F10.2°C 49.9°F9.9°C 98% Calm Calm -- 29.95 in1014.2 mb - 0.00 in0.0 mm 0.00 in0.0 mm
03:20 AM 50.2°F10.1°C 49.7°F9.8°C 98% Calm Calm -- 29.95 in1014.2 mb - 0.00 in0.0 mm 0.00 in0.0 mm
03:30 AM 50.0°F10.0°C 49.5°F9.7°C 98% Calm Calm -- 29.95 in1014.2 mb - 0.00 in0.0 mm 0.00 in0.0 mm
03:40 AM 50.0°F10.0°C 49.5°F9.7°C 98% Calm Calm -- 29.95 in1014.2 mb - 0.00 in0.0 mm 0.00 in0.0 mm
03:50 AM 49.7°F9.8°C 49.2°F9.6°C 98% Calm Calm -- 29.95 in1014.2 mb - 0.00 in0.0 mm 0.00 in0.0 mm
04:00 AM 49.6°F9.8°C 49.1°F9.5°C 98% Calm Calm -- 29.95 in1014.2 mb - 0.01 in0.3 mm 0.01 in0.3 mm
04:10 AM 49.5°F9.7°C 49.0°F9.4°C 98% Calm Calm -- 29.95 in1014.2 mb - 0.00 in0.0 mm 0.01 in0.3 mm
04:20 AM 49.3°F9.6°C 48.8°F9.3°C 98% Calm Calm -- 29.95 in1014.2 mb - 0.00 in0.0 mm 0.01 in0.3 mm
04:30 AM 49.4°F9.7°C 48.9°F9.4°C 98% Calm Calm -- 29.95 in1014.2 mb - 0.00 in0.0 mm 0.01 in0.3 mm
04:40 AM 49.4°F9.7°C 49.1°F9.5°C 99% Calm Calm -- 29.95 in1014.2 mb - 0.00 in0.0 mm 0.01 in0.3 mm
04:50 AM 49.4°F9.7°C 49.1°F9.5°C 99% Calm Calm -- 29.95 in1014.2 mb - 0.00 in0.0 mm 0.01 in0.3 mm
05:00 AM 49.6°F9.8°C 49.3°F9.6°C 99% Calm Calm -- 29.95 in1014.2 mb - 0.00 in0.0 mm 0.01 in0.3 mm
05:10 AM 49.7°F9.8°C 49.4°F9.7°C 99% Calm Calm -- 29.95 in1014.2 mb - 0.00 in0.0 mm 0.01 in0.3 mm
05:20 AM 49.8°F9.9°C 49.5°F9.7°C 99% Calm Calm -- 29.95 in1014.2 mb - 0.00 in0.0 mm 0.01 in0.3 mm
05:30 AM 49.9°F9.9°C 49.6°F9.8°C 99% Calm Calm -- 29.95 in1014.2 mb - 0.00 in0.0 mm 0.01 in0.3 mm
05:40 AM 50.0°F10.0°C 49.7°F9.8°C 99% Calm Calm -- 29.95 in1014.2 mb - 0.00 in0.0 mm 0.01 in0.3 mm
05:50 AM 50.1°F10.1°C 49.8°F9.9°C 99% Calm Calm -- 29.95 in1014.2 mb - 0.00 in0.0 mm 0.01 in0.3 mm
06:00 AM 50.3°F10.2°C 50.0°F10.0°C 99% Calm Calm -- 29.95 in1014.2 mb - 0.00 in0.0 mm 0.01 in0.3 mm
06:10 AM 50.5°F10.3°C 50.2°F10.1°C 99% Calm Calm -- 29.96 in1014.6 mb - 0.00 in0.0 mm 0.01 in0.3 mm
06:20 AM 50.7°F10.4°C 50.4°F10.2°C 99% Calm Calm -- 29.96 in1014.6 mb - 0.00 in0.0 mm 0.01 in0.3 mm
06:30 AM 51.1°F10.6°C 50.8°F10.4°C 99% Calm Calm -- 29.96 in1014.6 mb - 0.00 in0.0 mm 0.01 in0.3 mm
06:40 AM 51.7°F10.9°C 51.4°F10.8°C 99% Calm Calm 1.2 mph1.9 kmh 29.96 in1014.6 mb - 0.00 in0.0 mm 0.01 in0.3 mm
06:50 AM 52.0°F11.1°C 51.7°F10.9°C 99% Calm Calm 1.2 mph1.9 kmh 29.97 in1014.9 mb - 0.00 in0.0 mm 0.01 in0.3 mm
07:00 AM 52.2°F11.2°C 51.9°F11.1°C 99% Calm Calm -- 29.97 in1014.9 mb - 0.00 in0.0 mm 0.01 in0.3 mm
07:10 AM 52.3°F11.3°C 52.0°F11.1°C 99% Calm Calm -- 29.97 in1014.9 mb - 0.00 in0.0 mm 0.01 in0.3 mm
07:20 AM 52.7°F11.5°C 52.4°F11.3°C 99% Calm Calm -- 29.97 in1014.9 mb - 0.00 in0.0 mm 0.01 in0.3 mm
07:30 AM 53.2°F11.8°C 52.9°F11.6°C 99% Calm Calm -- 29.97 in1014.9 mb - 0.00 in0.0 mm 0.01 in0.3 mm
07:40 AM 53.7°F12.1°C 53.5°F11.9°C 99% 1.2 mph SW1.9 kmh SW 2.3 mph3.7 kmh 29.97 in1014.9 mb - 0.00 in0.0 mm 0.01 in0.3 mm
07:50 AM 54.0°F12.2°C 54.0°F12.2°C 100% Calm Calm -- 29.97 in1014.9 mb - 0.00 in0.0 mm 0.01 in0.3 mm
08:00 AM 54.5°F12.5°C 54.3°F12.4°C 99% Calm Calm 2.3 mph3.7 kmh 29.97 in1014.9 mb - 0.00 in0.0 mm 0.01 in0.3 mm
08:10 AM 54.9°F12.7°C 54.9°F12.7°C 100% Calm Calm 1.2 mph1.9 kmh 29.97 in1014.9 mb - 0.00 in0.0 mm 0.01 in0.3 mm
08:20 AM 54.9°F12.7°C 54.6°F12.6°C 99% Calm Calm 1.2 mph1.9 kmh 29.97 in1014.9 mb - 0.00 in0.0 mm 0.01 in0.3 mm
08:30 AM 55.1°F12.8°C 55.1°F12.8°C 100% Calm Calm 2.3 mph3.7 kmh 29.97 in1014.9 mb - 0.00 in0.0 mm 0.01 in0.3 mm
08:40 AM 55.6°F13.1°C 55.4°F13.0°C 99% 2.3 mph SSW3.7 kmh SSW 2.3 mph3.7 kmh 29.97 in1014.9 mb - 0.00 in0.0 mm 0.01 in0.3 mm
08:50 AM 56.1°F13.4°C 55.8°F13.2°C 99% Calm Calm -- 29.97 in1014.9 mb - 0.00 in0.0 mm 0.01 in0.3 mm
09:10 AM 57.8°F14.3°C 56.9°F13.8°C 97% Calm Calm 2.3 mph3.7 kmh 29.97 in1014.9 mb - 0.00 in0.0 mm 0.01 in0.3 mm
09:20 AM 59.3°F15.2°C 57.3°F14.1°C 93% 1.2 mph WSW1.9 kmh WSW 1.2 mph1.9 kmh 29.98 in1015.2 mb - 0.00 in0.0 mm 0.01 in0.3 mm
09:30 AM 61.3°F16.3°C 58.4°F14.7°C 90% 1.2 mph WSW1.9 kmh WSW 3.5 mph5.6 kmh 29.98 in1015.2 mb - 0.00 in0.0 mm 0.01 in0.3 mm
09:40 AM 63.1°F17.3°C 58.8°F14.9°C 86% 1.2 mph SSE1.9 kmh SSE 3.5 mph5.6 kmh 29.98 in1015.2 mb - 0.00 in0.0 mm 0.01 in0.3 mm
09:50 AM 64.8°F18.2°C 58.8°F14.9°C 81% 1.2 mph NNE1.9 kmh NNE 2.3 mph3.7 kmh 29.98 in1015.2 mb - 0.00 in0.0 mm 0.01 in0.3 mm
10:00 AM 66.1°F18.9°C 59.0°F15.0°C 78% Calm Calm -- 29.98 in1015.2 mb - 0.00 in0.0 mm 0.01 in0.3 mm
10:10 AM 67.1°F19.5°C 59.3°F15.2°C 76% Calm Calm 2.3 mph3.7 kmh 29.97 in1014.9 mb - 0.00 in0.0 mm 0.01 in0.3 mm
10:20 AM 68.3°F20.2°C 60.4°F15.8°C 76% Calm Calm -- 29.98 in1015.2 mb - 0.00 in0.0 mm 0.01 in0.3 mm
10:30 AM 69.6°F20.9°C 59.0°F15.0°C 69% 1.2 mph SSW1.9 kmh SSW 3.5 mph5.6 kmh 29.97 in1014.9 mb - 0.00 in0.0 mm 0.01 in0.3 mm
10:40 AM 71.1°F21.7°C 59.2°F15.1°C 66% Calm Calm 1.2 mph1.9 kmh 29.98 in1015.2 mb - 0.00 in0.0 mm 0.01 in0.3 mm
10:50 AM 72.3°F22.4°C 59.5°F15.3°C 64% 1.2 mph SSW1.9 kmh SSW 2.3 mph3.7 kmh 29.97 in1014.9 mb - 0.00 in0.0 mm 0.01 in0.3 mm
11:00 AM 73.6°F23.1°C 57.9°F14.4°C 58% 2.3 mph NNW3.7 kmh NNW 3.5 mph5.6 kmh 29.98 in1015.2 mb - 0.00 in0.0 mm 0.01 in0.3 mm
11:10 AM 74.4°F23.6°C 54.0°F12.2°C 49% 2.3 mph SSE3.7 kmh SSE 3.5 mph5.6 kmh 29.97 in1014.9 mb - 0.00 in0.0 mm 0.01 in0.3 mm
11:20 AM 75.2°F24.0°C 55.8°F13.2°C 51% 2.3 mph SE3.7 kmh SE 3.5 mph5.6 kmh 29.98 in1015.2 mb - 0.00 in0.0 mm 0.01 in0.3 mm
11:30 AM 75.7°F24.3°C 53.5°F11.9°C 46% 2.3 mph SSW3.7 kmh SSW 3.5 mph5.6 kmh 29.97 in1014.9 mb - 0.00 in0.0 mm 0.01 in0.3 mm
11:40 AM 76.6°F24.8°C 52.4°F11.3°C 43% 3.5 mph SW5.6 kmh SW 8.1 mph13.0 kmh 29.97 in1014.9 mb - 0.00 in0.0 mm 0.01 in0.3 mm
11:50 AM 77.3°F25.2°C 53.7°F12.1°C 44% 2.3 mph NE3.7 kmh NE 3.5 mph5.6 kmh 29.97 in1014.9 mb - 0.00 in0.0 mm 0.01 in0.3 mm
12:00 PM 78.3°F25.7°C 54.0°F12.2°C 43% 1.2 mph E1.9 kmh E 5.8 mph9.3 kmh 29.97 in1014.9 mb - 0.00 in0.0 mm 0.01 in0.3 mm
12:10 PM 78.8°F26.0°C 54.4°F12.4°C 43% 1.2 mph NNE1.9 kmh NNE 3.5 mph5.6 kmh 29.96 in1014.6 mb - 0.00 in0.0 mm 0.01 in0.3 mm
12:20 PM 78.9°F26.1°C 51.9°F11.1°C 39% 3.5 mph NW5.6 kmh NW 6.9 mph11.1 kmh 29.96 in1014.6 mb - 0.00 in0.0 mm 0.01 in0.3 mm
12:30 PM 79.4°F26.3°C 54.3°F12.4°C 42% 3.5 mph ENE5.6 kmh ENE 3.5 mph5.6 kmh 29.96 in1014.6 mb - 0.00 in0.0 mm 0.01 in0.3 mm
12:40 PM 79.4°F26.3°C 54.3°F12.4°C 42% Calm Calm -- 29.96 in1014.6 mb - 0.00 in0.0 mm 0.01 in0.3 mm
12:50 PM 79.4°F26.3°C 54.3°F12.4°C 42% Calm Calm -- 29.96 in1014.6 mb - 0.00 in0.0 mm 0.01 in0.3 mm
01:00 PM 79.4°F26.3°C 54.3°F12.4°C 42% Calm Calm -- 29.95 in1014.2 mb - 0.00 in0.0 mm 0.01 in0.3 mm
01:10 PM 79.4°F26.3°C 54.3°F12.4°C 42% Calm Calm -- 29.95 in1014.2 mb - 0.00 in0.0 mm 0.01 in0.3 mm
01:20 PM 79.4°F26.3°C 54.3°F12.4°C 42% Calm Calm -- 29.95 in1014.2 mb - 0.00 in0.0 mm 0.01 in0.3 mm
01:30 PM 81.9°F27.7°C 52.4°F11.3°C 36% 3.5 mph ESE5.6 kmh ESE 4.6 mph7.4 kmh 29.95 in1014.2 mb - 0.00 in0.0 mm 0.01 in0.3 mm
01:40 PM 81.7°F27.6°C 52.2°F11.2°C 36% 3.5 mph NW5.6 kmh NW 2.3 mph3.7 kmh 29.95 in1014.2 mb - 0.00 in0.0 mm 0.01 in0.3 mm
01:50 PM 82.2°F27.9°C 53.4°F11.9°C 37% 3.5 mph SE5.6 kmh SE 3.5 mph5.6 kmh 29.95 in1014.2 mb - 0.00 in0.0 mm 0.01 in0.3 mm
02:00 PM 82.5°F28.1°C 52.8°F11.6°C 36% 4.6 mph N7.4 kmh N 5.8 mph9.3 kmh 29.95 in1014.2 mb - 0.00 in0.0 mm 0.01 in0.3 mm
02:10 PM 81.7°F27.6°C 50.6°F10.3°C 34% 3.5 mph NNE5.6 kmh NNE 3.5 mph5.6 kmh 29.95 in1014.2 mb - 0.00 in0.0 mm 0.01 in0.3 mm
02:20 PM 82.8°F28.2°C 53.1°F11.7°C 36% 2.3 mph SW3.7 kmh SW 3.5 mph5.6 kmh 29.94 in1013.9 mb - 0.00 in0.0 mm 0.01 in0.3 mm
02:30 PM 83.5°F28.6°C 54.5°F12.5°C 37% 2.3 mph N3.7 kmh N 4.6 mph7.4 kmh 29.94 in1013.9 mb - 0.00 in0.0 mm 0.01 in0.3 mm
02:40 PM 83.4°F28.6°C 52.1°F11.2°C 34% 1.2 mph E1.9 kmh E 2.3 mph3.7 kmh 29.93 in1013.5 mb - 0.00 in0.0 mm 0.01 in0.3 mm
02:50 PM 84.2°F29.0°C 54.4°F12.4°C 36% 1.2 mph E1.9 kmh E 3.5 mph5.6 kmh 29.93 in1013.5 mb - 0.00 in0.0 mm 0.01 in0.3 mm
03:00 PM 83.4°F28.6°C 49.6°F9.8°C 31% 1.2 mph N1.9 kmh N 5.8 mph9.3 kmh 29.94 in1013.9 mb - 0.00 in0.0 mm 0.01 in0.3 mm
03:10 PM 81.8°F27.7°C 49.1°F9.5°C 32% 1.2 mph SW1.9 kmh SW 3.5 mph5.6 kmh 29.94 in1013.9 mb - 0.00 in0.0 mm 0.01 in0.3 mm
03:20 PM 80.8°F27.1°C 52.8°F11.6°C 38% Calm Calm 1.2 mph1.9 kmh 29.94 in1013.9 mb - 0.00 in0.0 mm 0.01 in0.3 mm
03:30 PM 82.7°F28.2°C 49.8°F9.9°C 32% 2.3 mph SSW3.7 kmh SSW 4.6 mph7.4 kmh 29.93 in1013.5 mb - 0.00 in0.0 mm 0.01 in0.3 mm
03:40 PM 84.7°F29.3°C 54.0°F12.2°C 35% 2.3 mph SW3.7 kmh SW 2.3 mph3.7 kmh 29.93 in1013.5 mb - 0.00 in0.0 mm 0.01 in0.3 mm
03:50 PM 84.8°F29.3°C 49.9°F9.9°C 30% 3.5 mph SSE5.6 kmh SSE 11.5 mph18.5 kmh 29.94 in1013.9 mb - 0.00 in0.0 mm 0.01 in0.3 mm
04:00 PM 84.8°F29.3°C 54.1°F12.3°C 35% Calm Calm 1.2 mph1.9 kmh 29.94 in1013.9 mb - 0.00 in0.0 mm 0.01 in0.3 mm
04:10 PM 83.3°F28.5°C 49.5°F9.7°C 31% 1.2 mph S1.9 kmh S 3.5 mph5.6 kmh 29.94 in1013.9 mb - 0.00 in0.0 mm 0.01 in0.3 mm
04:20 PM 82.4°F28.0°C 49.6°F9.8°C 32% 1.2 mph S1.9 kmh S 2.3 mph3.7 kmh 29.94 in1013.9 mb - 0.00 in0.0 mm 0.01 in0.3 mm
04:30 PM 83.3°F28.5°C 51.2°F10.7°C 33% 3.5 mph SSW5.6 kmh SSW 5.8 mph9.3 kmh 29.93 in1013.5 mb - 0.00 in0.0 mm 0.01 in0.3 mm
04:40 PM 84.2°F29.0°C 50.3°F10.2°C 31% 3.5 mph SW5.6 kmh SW 4.6 mph7.4 kmh 29.93 in1013.5 mb - 0.00 in0.0 mm 0.01 in0.3 mm
04:50 PM 84.4°F29.1°C 48.7°F9.3°C 29% 3.5 mph SSW5.6 kmh SSW 3.5 mph5.6 kmh 29.93 in1013.5 mb - 0.00 in0.0 mm 0.01 in0.3 mm
05:00 PM 84.5°F29.2°C 46.8°F8.2°C 27% 4.6 mph S7.4 kmh S 9.2 mph14.8 kmh 29.94 in1013.9 mb - 0.00 in0.0 mm 0.01 in0.3 mm
05:10 PM 82.8°F28.2°C 48.2°F9.0°C 30% 4.6 mph S7.4 kmh S 3.5 mph5.6 kmh 29.94 in1013.9 mb - 0.00 in0.0 mm 0.01 in0.3 mm
05:20 PM 81.5°F27.5°C 49.6°F9.8°C 33% 3.5 mph W5.6 kmh W 4.6 mph7.4 kmh 29.94 in1013.9 mb - 0.00 in0.0 mm 0.01 in0.3 mm
05:30 PM 80.8°F27.1°C 50.6°F10.3°C 35% 3.5 mph SW5.6 kmh SW 9.2 mph14.8 kmh 29.94 in1013.9 mb - 0.00 in0.0 mm 0.01 in0.3 mm
05:40 PM 80.4°F26.9°C 52.5°F11.4°C 38% Calm Calm 1.2 mph1.9 kmh 29.94 in1013.9 mb - 0.00 in0.0 mm 0.01 in0.3 mm
05:50 PM 80.4°F26.9°C 52.5°F11.4°C 38% 1.2 mph SE1.9 kmh SE 1.2 mph1.9 kmh 29.94 in1013.9 mb - 0.00 in0.0 mm 0.01 in0.3 mm
06:00 PM 80.4°F26.9°C 52.5°F11.4°C 38% Calm Calm -- 29.95 in1014.2 mb - 0.00 in0.0 mm 0.01 in0.3 mm
06:10 PM 80.4°F26.9°C 52.5°F11.4°C 38% Calm Calm -- 29.95 in1014.2 mb - 0.00 in0.0 mm 0.01 in0.3 mm
06:20 PM 80.4°F26.9°C 52.5°F11.4°C 38% Calm Calm -- 29.95 in1014.2 mb - 0.00 in0.0 mm 0.01 in0.3 mm
06:30 PM 80.4°F26.9°C 52.5°F11.4°C 38% Calm Calm -- 29.95 in1014.2 mb - 0.00 in0.0 mm 0.01 in0.3 mm
06:40 PM 80.4°F26.9°C 52.5°F11.4°C 38% Calm Calm -- 29.95 in1014.2 mb - 0.00 in0.0 mm 0.01 in0.3 mm
06:50 PM 80.4°F26.9°C 52.5°F11.4°C 38% Calm Calm -- 29.95 in1014.2 mb - 0.00 in0.0 mm 0.01 in0.3 mm
07:00 PM 80.4°F26.9°C 52.5°F11.4°C 38% Calm Calm -- 29.95 in1014.2 mb - 0.00 in0.0 mm 0.01 in0.3 mm
07:10 PM 80.4°F26.9°C 52.5°F11.4°C 38% Calm Calm -- 29.95 in1014.2 mb - 0.00 in0.0 mm 0.01 in0.3 mm
07:20 PM 74.2°F23.4°C 55.5°F13.1°C 52% 1.2 mph SSE1.9 kmh SSE 2.3 mph3.7 kmh 29.95 in1014.2 mb - 0.00 in0.0 mm 0.01 in0.3 mm
07:30 PM 73.8°F23.2°C 55.6°F13.1°C 53% Calm Calm -- 29.95 in1014.2 mb - 0.00 in0.0 mm 0.01 in0.3 mm
07:40 PM 73.2°F22.9°C 56.1°F13.4°C 55% Calm Calm 1.2 mph1.9 kmh 29.95 in1014.2 mb - 0.00 in0.0 mm 0.01 in0.3 mm
07:50 PM 72.9°F22.7°C 55.8°F13.2°C 55% Calm Calm 1.2 mph1.9 kmh 29.96 in1014.6 mb - 0.00 in0.0 mm 0.01 in0.3 mm
08:00 PM 72.5°F22.5°C 55.9°F13.3°C 56% Calm Calm -- 29.96 in1014.6 mb - 0.00 in0.0 mm 0.01 in0.3 mm
08:10 PM 72.0°F22.2°C 55.9°F13.3°C 57% Calm Calm 1.2 mph1.9 kmh 29.96 in1014.6 mb - 0.00 in0.0 mm 0.01 in0.3 mm
08:20 PM 71.5°F21.9°C 55.5°F13.1°C 57% Calm Calm 1.2 mph1.9 kmh 29.96 in1014.6 mb - 0.00 in0.0 mm 0.01 in0.3 mm
08:30 PM 71.0°F21.7°C 55.9°F13.3°C 59% Calm Calm 2.3 mph3.7 kmh 29.96 in1014.6 mb - 0.00 in0.0 mm 0.01 in0.3 mm
08:40 PM 70.5°F21.4°C 56.4°F13.6°C 61% Calm Calm -- 29.96 in1014.6 mb - 0.00 in0.0 mm 0.01 in0.3 mm
08:50 PM 69.6°F20.9°C 56.9°F13.8°C 64% Calm Calm -- 29.96 in1014.6 mb - 0.00 in0.0 mm 0.01 in0.3 mm
09:00 PM 68.8°F20.4°C 56.6°F13.7°C 65% Calm Calm -- 29.97 in1014.9 mb - 0.00 in0.0 mm 0.01 in0.3 mm
09:10 PM 68.2°F20.1°C 56.0°F13.3°C 65% Calm Calm 1.2 mph1.9 kmh 29.97 in1014.9 mb - 0.00 in0.0 mm 0.01 in0.3 mm
09:20 PM 67.6°F19.8°C 56.2°F13.4°C 67% Calm Calm -- 29.97 in1014.9 mb - 0.00 in0.0 mm 0.01 in0.3 mm
09:30 PM 66.9°F19.4°C 56.4°F13.6°C 69% Calm Calm -- 29.98 in1015.2 mb - 0.00 in0.0 mm 0.01 in0.3 mm
09:40 PM 66.2°F19.0°C 56.9°F13.8°C 72% Calm Calm -- 29.98 in1015.2 mb - 0.00 in0.0 mm 0.01 in0.3 mm
09:50 PM 65.3°F18.5°C 56.8°F13.8°C 74% Calm Calm -- 29.98 in1015.2 mb - 0.00 in0.0 mm 0.01 in0.3 mm
10:00 PM 64.2°F17.9°C 56.1°F13.4°C 75% Calm Calm -- 29.98 in1015.2 mb - 0.00 in0.0 mm 0.01 in0.3 mm
10:10 PM 63.3°F17.4°C 56.3°F13.5°C 78% Calm Calm -- 29.98 in1015.2 mb - 0.00 in0.0 mm 0.01 in0.3 mm
10:20 PM 62.7°F17.1°C 56.5°F13.6°C 80% Calm Calm -- 29.98 in1015.2 mb - 0.00 in0.0 mm 0.01 in0.3 mm
10:30 PM 62.2°F16.8°C 56.3°F13.5°C 81% Calm Calm -- 29.98 in1015.2 mb - 0.00 in0.0 mm 0.01 in0.3 mm
10:40 PM 61.7°F16.5°C 55.8°F13.2°C 81% Calm Calm -- 29.99 in1015.6 mb - 0.00 in0.0 mm 0.01 in0.3 mm
10:50 PM 61.2°F16.2°C 55.7°F13.2°C 82% Calm Calm -- 29.99 in1015.6 mb - 0.00 in0.0 mm 0.01 in0.3 mm
11:00 PM 60.6°F15.9°C 55.7°F13.2°C 84% Calm Calm -- 29.99 in1015.6 mb - 0.00 in0.0 mm 0.01 in0.3 mm
11:10 PM 60.0°F15.6°C 55.8°F13.2°C 86% Calm Calm -- 29.99 in1015.6 mb - 0.00 in0.0 mm 0.01 in0.3 mm
11:20 PM 59.6°F15.3°C 55.7°F13.2°C 87% Calm Calm -- 29.99 in1015.6 mb - 0.00 in0.0 mm 0.01 in0.3 mm
11:30 PM 59.3°F15.2°C 55.7°F13.2°C 88% Calm Calm -- 29.99 in1015.6 mb - 0.00 in0.0 mm 0.01 in0.3 mm
11:40 PM 59.0°F15.0°C 55.8°F13.2°C 89% Calm Calm -- 29.99 in1015.6 mb - 0.00 in0.0 mm 0.01 in0.3 mm
11:50 PM 58.6°F14.8°C 55.7°F13.2°C 90% Calm Calm -- 30.00 in1015.9 mb - 0.00 in0.0 mm 0.01 in0.3 mm